Pagina principale
METAR-TAF:

METAR-TAF

Aeroporti :

Aeroporto di Volgograd

Volgograd, Russia

latitudine: 48-47N, longitudine: 044-22E, altezza: 145 m

Osservazione

Il bollettino è stato emesso 27 minuti fa, alle 12:30 UTC
Vento 6 kt da est/sud-est, variando fra est/nord-est e sud
Temperature 29°C
Umidità 29%
Pressione 1018 hPa
Visibilità 10 km o più
nessuna nube inferiore a 1500 m e nessun cumulonembo

METAR: URWW 151230Z 11003MPS 070V180 CAVOK 29/09 Q1018 R06/010070 NOSIG

Ora: 15:57 (12:57 UTC)

Previsione

Il bollettino è stato emesso 1 ora e 58 minuti fa, alle 10:59 UTC
Previsione valida dal 15 alle 12 UTC al 15 alle 21 UTC
Vento 6 kt da est/sud-est con raffiche fino a 16 kt
Visibilità 10 km o più
Nubi sparse ad un'altezza di 4000 ft
Temporaneamente
dal 15 alle 12 UTC al 15 alle 21 UTC
Vento 10 kt da est con raffiche fino a 19 kt

TAF: URWW 151059Z 1512/1521 12003G08MPS 9999 SCT040 TEMPO 1512/1521 08005G10MPS

Osservazioni e previsioni meteorologiche di più di 4000 aeroporti (messaggi METAR e TAF).

Le stazioni disponibili sono rappresentate dai dischi gialli e rossi sulla carta.

Puntare il mouse per vedere il nome della stazione.

Clicca sopra per visualizzare le osservazioni e previsioni meteorologiche.

Per cambiare la mappa : fare clic sui pulsanti verdi con una croce nera per ingrandire, il pulsante verde con un trattino per diminuire, o sulla freccia verde per le mappe adiacenti.


METAR-TAF: